Anchor Point, Alaska
Current Conditions -  °F | °C
As of 1:02 AM on Friday 28 Nov 2014 (Local Time) from PAHO Reporting Station
Overcast Overcast  
Wind Chill: 28°   Ceiling: 3100
Heat Index: 33°   Visibility: 10mi
Dew Point: 27°   Wind: 6mph
Humidity: 78%   Direction: 60°ENE
Pressure: 30.15"   Gusts: NA
Location:  59.77°N, 151.82°W
Report Text: PAHO 281002Z AUTO 06005KT 10SM BKN031 OVC036 01/M03 A3015 RMK AO2 T00061028 TSNO
Loading
Personal Weather Stations






























Interactive Weather Map New forecast layout! Learn more

10-Day Weather Forecast

Advertisements
Track Severe Weather on mobile